KSDF Airport Diagram

We have created a template for each of the higher traffic airports in the vZID airspace. They include KCMH, KCRW, KCVG, KDAY, KIND, KLEX and KSDF. You wil find usefull information including the airport diagram, weather, and specific airport procedures.

KSDF Weather

[Source: ADDS]
METAR
KSDF 241456Z 01013KT 1SM R35R/4500VP6000FT +RA BR BKN006 OVC013 11/09 A3008 RMK AO2 TWR VIS 1 1/4 DZE46RAB46 SLP186 P0009 60010 T01060094 55001 =
TAF
KSDF 241353Z 2414/2518 01004KT P6SM VCSH OVC011 TEMPO 2414/2418 2SM -RA BR BKN006 FM241800 17006KT 5SM -SHRA VCTS OVC015CB TEMPO 2420/2424 2SM -TSRA BR BKN009CB FM250000 17010G15KT 5SM -TSRA OVC025CB WS020/19045KT FM250400 20014G25KT 5SM -SHRA VCTS OVC022CB WS020/19060KT FM250800 25015G27KT 6SM -SHRA OVC022 FM251200 28014KT P6SM SCT030 BKN250 =

KSDF Operations

Calm Wind Configuration is runways 17L and 17R.

Runway 17L typically departs north and east.

Runway 17R typicall departs south and west.

 

JSN Epic template designed by JoomlaShine.com